createdAt,value
2019-05-30T00:02:00.516Z,2.98
2019-05-30T00:06:56.805Z,1.90
2019-05-30T00:11:54.561Z,1.47
2019-05-30T00:16:50.105Z,2.40
2019-05-30T00:21:44.010Z,2.37
2019-05-30T00:26:41.713Z,3.17
2019-05-30T00:31:40.982Z,1.45
2019-05-30T00:36:43.340Z,2.95
2019-05-30T00:41:37.122Z,1.55
2019-05-30T00:46:30.691Z,2.02
2019-05-30T00:51:30.249Z,3.15
2019-05-30T00:56:24.260Z,1.07
2019-05-30T01:01:20.468Z,1.35
2019-05-30T01:06:21.857Z,1.32
2019-05-30T01:11:17.322Z,2.67
2019-05-30T01:16:11.258Z,0.90
2019-05-30T01:21:05.366Z,1.35
2019-05-30T01:26:01.252Z,1.17
2019-05-30T01:31:16.396Z,2.80
2019-05-30T01:36:20.244Z,4.03
2019-05-30T01:41:21.568Z,2.08
2019-05-30T01:46:33.030Z,2.47
2019-05-30T01:51:31.569Z,2.85
2019-05-30T01:56:35.931Z,4.30
2019-05-30T02:01:32.046Z,2.05
2019-05-30T02:06:25.619Z,2.62
2019-05-30T02:11:20.174Z,6.30
2019-05-30T02:16:15.912Z,7.40
2019-05-30T02:21:09.999Z,3.20
2019-05-30T02:26:04.127Z,2.75
2019-05-30T02:30:57.906Z,3.12
2019-05-30T02:35:51.518Z,3.42
2019-05-30T02:40:45.109Z,4.75
2019-05-30T02:45:40.679Z,4.70
2019-05-30T02:50:34.256Z,7.28
2019-05-30T02:55:28.738Z,2.77
2019-05-30T03:00:34.037Z,5.28
2019-05-30T03:05:28.145Z,4.15
2019-05-30T03:10:23.670Z,4.70
2019-05-30T03:15:17.885Z,4.50
2019-05-30T03:20:21.947Z,3.87
2019-05-30T03:25:11.107Z,7.58
2019-05-30T03:30:13.448Z,5.22
2019-05-30T03:35:14.472Z,4.28
2019-05-30T03:40:06.677Z,5.80
2019-05-30T03:45:00.258Z,5.97
2019-05-30T03:49:56.350Z,6.33
2019-05-30T03:54:57.450Z,10.55
2019-05-30T04:00:14.526Z,7.60
2019-05-30T04:05:16.293Z,10.75
2019-05-30T04:15:12.554Z,9.55
2019-05-30T04:20:09.386Z,10.63
2019-05-30T04:25:10.157Z,12.05
2019-05-30T04:30:07.792Z,8.18
2019-05-30T04:35:02.718Z,9.58
2019-05-30T04:39:57.197Z,9.85
2019-05-30T04:44:51.794Z,11.43
2019-05-30T04:49:48.044Z,7.37
2019-05-30T04:54:41.806Z,10.55
2019-05-30T04:59:35.426Z,12.50
2019-05-30T05:04:30.575Z,11.68
2019-05-30T05:09:43.079Z,12.80
2019-05-30T05:14:37.654Z,15.90
2019-05-30T05:19:33.158Z,14.07
2019-05-30T05:24:26.833Z,15.38
2019-05-30T05:29:21.994Z,16.77
2019-05-30T05:34:22.699Z,14.98
2019-05-30T05:39:16.362Z,16.03
2019-05-30T05:44:16.185Z,17.32
2019-05-30T05:49:12.952Z,16.45
2019-05-30T05:54:07.483Z,18.23
2019-05-30T05:59:04.142Z,18.20
2019-05-30T06:04:12.001Z,18.90
2019-05-30T06:08:54.824Z,20.35
2019-05-30T06:13:50.381Z,17.60
2019-05-30T06:18:48.932Z,18.80
2019-05-30T06:23:45.563Z,14.75
2019-05-30T06:28:38.953Z,16.87
2019-05-30T06:33:34.640Z,16.42
2019-05-30T06:38:29.422Z,19.47
2019-05-30T06:43:24.331Z,16.40
2019-05-30T06:48:26.737Z,19.27
2019-05-30T06:53:21.005Z,18.60
2019-05-30T06:58:14.637Z,17.27
2019-05-30T07:03:08.200Z,17.98
2019-05-30T07:08:06.326Z,13.70
2019-05-30T07:12:59.889Z,15.18
2019-05-30T07:18:11.861Z,20.60
2019-05-30T07:23:06.082Z,18.67
2019-05-30T07:27:59.683Z,13.32
2019-05-30T07:32:53.184Z,15.38
2019-05-30T07:37:48.613Z,21.05
2019-05-30T07:42:42.199Z,15.30
2019-05-30T07:47:35.785Z,12.03
2019-05-30T07:52:32.666Z,15.53
2019-05-30T07:57:34.407Z,11.23
2019-05-30T08:02:29.516Z,9.58
2019-05-30T08:07:28.773Z,12.33
2019-05-30T08:12:32.010Z,13.65
2019-05-30T08:17:29.492Z,13.68
2019-05-30T08:22:24.247Z,10.93
2019-05-30T08:27:17.855Z,12.35
2019-05-30T08:32:11.592Z,9.63
2019-05-30T08:37:06.302Z,15.78
2019-05-30T08:42:01.808Z,11.30
2019-05-30T08:47:02.053Z,10.70
2019-05-30T08:51:57.949Z,13.53
2019-05-30T08:56:53.009Z,10.78
2019-05-30T09:02:11.961Z,11.90
2019-05-30T09:07:44.738Z,11.53
2019-05-30T09:12:48.772Z,13.25
2019-05-30T09:17:47.252Z,11.35
2019-05-30T09:22:42.008Z,12.78
2019-05-30T09:27:39.349Z,11.20
2019-05-30T09:32:33.890Z,13.87
2019-05-30T09:37:30.381Z,16.57
2019-05-30T09:42:30.078Z,13.67
2019-05-30T09:47:23.883Z,10.87
2019-05-30T09:52:35.512Z,16.37
2019-05-30T09:58:07.319Z,13.88
2019-05-30T10:02:57.407Z,15.45
2019-05-30T10:07:52.954Z,14.98
2019-05-30T10:12:56.632Z,16.10
2019-05-30T10:17:52.820Z,13.90
2019-05-30T10:22:51.690Z,14.18
2019-05-30T10:28:06.282Z,14.00
2019-05-30T10:33:12.055Z,15.67
2019-05-30T10:38:07.757Z,16.73
2019-05-30T10:43:02.021Z,12.47
2019-05-30T10:48:12.897Z,13.40
2019-05-30T10:53:16.125Z,13.45
2019-05-30T10:58:25.212Z,15.23
2019-05-30T11:03:18.318Z,11.48
2019-05-30T11:08:15.100Z,14.10
2019-05-30T11:13:15.101Z,12.88
2019-05-30T11:18:10.158Z,13.58
2019-05-30T11:23:11.552Z,11.95
2019-05-30T11:28:09.907Z,14.57
2019-05-30T11:33:18.903Z,17.25
2019-05-30T11:38:16.289Z,20.68
2019-05-30T11:43:20.109Z,12.15
2019-05-30T11:48:22.184Z,11.48
2019-05-30T11:53:20.823Z,13.30
2019-05-30T11:58:18.313Z,13.78
2019-05-30T12:03:13.306Z,12.82
2019-05-30T12:08:16.323Z,10.78
2019-05-30T12:13:11.087Z,14.13
2019-05-30T12:18:04.930Z,13.53
2019-05-30T12:23:00.308Z,15.03
2019-05-30T12:27:56.031Z,12.83
2019-05-30T12:32:52.372Z,10.72
2019-05-30T12:38:04.300Z,12.10
2019-05-30T12:43:02.905Z,10.23
2019-05-30T12:47:59.242Z,12.93
2019-05-30T12:58:07.047Z,14.18
2019-05-30T13:03:02.968Z,11.50
2019-05-30T13:08:16.463Z,11.70
2019-05-30T13:13:15.603Z,9.65
2019-05-30T13:18:10.472Z,9.03
2019-05-30T13:23:59.559Z,10.82
2019-05-30T13:29:25.457Z,10.70
2019-05-30T13:34:29.068Z,12.37
2019-05-30T13:39:24.829Z,10.75
2019-05-30T13:44:25.893Z,12.53
2019-05-30T13:49:44.334Z,11.93
2019-05-30T13:55:03.476Z,11.57
2019-05-30T14:00:15.810Z,12.15
2019-05-30T14:05:14.311Z,8.53
2019-05-30T14:10:25.515Z,12.88
2019-05-30T14:16:03.067Z,9.60
2019-05-30T14:21:11.579Z,12.18
2019-05-30T14:26:13.902Z,10.43
2019-05-30T14:31:17.848Z,12.88
2019-05-30T14:36:22.866Z,11.22
2019-05-30T14:41:21.047Z,8.28
2019-05-30T14:46:25.777Z,8.58
2019-05-30T14:56:53.653Z,9.03
2019-05-30T15:02:34.489Z,7.50
2019-05-30T15:07:41.746Z,8.03
2019-05-30T15:12:46.017Z,10.15
2019-05-30T15:17:45.484Z,7.33
2019-05-30T15:23:47.498Z,10.40
2019-05-30T15:28:03.899Z,8.20
2019-05-30T15:33:00.017Z,11.80
2019-05-30T15:38:28.431Z,10.32
2019-05-30T15:43:24.374Z,7.58
2019-05-30T15:48:23.217Z,13.45
2019-05-30T15:53:24.296Z,8.58
2019-05-30T15:58:24.430Z,10.63
2019-05-30T16:03:38.326Z,9.83
2019-05-30T16:14:56.200Z,15.93
2019-05-30T16:20:03.322Z,11.75
2019-05-30T16:25:19.660Z,13.78
2019-05-30T16:30:24.302Z,9.58
2019-05-30T16:35:20.101Z,9.78
2019-05-30T16:52:59.167Z,10.32
